Rising Fawn, Georgia
Current Conditions -  °F | °C
As of 5:35 PM on Tuesday 21 Oct 2014 (Local Time) from K4A9 Reporting Station
Clear Clear  
Wind Chill: 70°   Ceiling: Unl
Heat Index: 70°   Visibility: 10mi
Dew Point: 41°   Wind: 6mph
Humidity: 35%   Direction: 340°NNW
Pressure: 29.99"   Gusts: NA
Location:  34.76°N, 85.53°W
Report Text: K4A9 212135Z AUTO 34005KT 10SM CLR 21/05 A2999 RMK AO2
Loading
Personal Weather Stations






























Interactive Weather Map
Tropical Storm Tracking
New forecast layout! Learn more

10-Day Weather Forecast

Advertisements
Track Severe Weather on mobile